Terminal Aerodrome Forecast
Issued by NWS Billings, MT

Home | Current Version | Previous Version | Text Only | Print | Product List | Glossary On
Versions: 1 2 3 4 5 6 7 8 9 10 11 12 13 14 15 16
000
FTUS45 KBYZ 252324
TAFMLS
TAF
KMLS 252324Z 2600/2624 32022G27KT P6SM FEW120 BKN200
     FM260300 34018G26KT P6SM VCSH BKN060
     FM260600 30009KT P6SM SKC=

USA.gov is the U.S. government's official web portal to all federal, state and local government web resources and services.